sensor_id;sensor_type;location;lat;lon;timestamp;temperature;humidity
5041;DHT22;2539;52.568;13.364;2022-11-14T00:02:21;7.10;99.90
5041;DHT22;2539;52.568;13.364;2022-11-14T00:04:48;7.10;99.90
5041;DHT22;2539;52.568;13.364;2022-11-14T00:07:15;7.10;99.90
5041;DHT22;2539;52.568;13.364;2022-11-14T00:09:41;7.10;99.90
5041;DHT22;2539;52.568;13.364;2022-11-14T00:12:08;7.10;99.90
5041;DHT22;2539;52.568;13.364;2022-11-14T00:14:35;7.10;99.90
5041;DHT22;2539;52.568;13.364;2022-11-14T00:17:02;7.10;99.90
5041;DHT22;2539;52.568;13.364;2022-11-14T00:19:28;7.00;99.90
5041;DHT22;2539;52.568;13.364;2022-11-14T00:21:54;7.00;99.90
5041;DHT22;2539;52.568;13.364;2022-11-14T00:24:21;7.00;99.90
5041;DHT22;2539;52.568;13.364;2022-11-14T00:26:47;7.00;99.90
5041;DHT22;2539;52.568;13.364;2022-11-14T00:29:14;7.00;99.90
5041;DHT22;2539;52.568;13.364;2022-11-14T00:31:41;7.00;99.90
5041;DHT22;2539;52.568;13.364;2022-11-14T00:34:08;7.00;99.90
5041;DHT22;2539;52.568;13.364;2022-11-14T00:36:35;6.90;99.90
5041;DHT22;2539;52.568;13.364;2022-11-14T00:39:02;6.90;99.90
5041;DHT22;2539;52.568;13.364;2022-11-14T00:41:29;6.90;99.90
5041;DHT22;2539;52.568;13.364;2022-11-14T00:43:55;6.90;99.90
5041;DHT22;2539;52.568;13.364;2022-11-14T00:46:21;6.90;99.90
5041;DHT22;2539;52.568;13.364;2022-11-14T00:48:48;6.80;99.90
5041;DHT22;2539;52.568;13.364;2022-11-14T00:51:14;6.80;99.90
5041;DHT22;2539;52.568;13.364;2022-11-14T00:53:40;6.80;99.90
5041;DHT22;2539;52.568;13.364;2022-11-14T00:56:07;6.80;99.90
5041;DHT22;2539;52.568;13.364;2022-11-14T00:58:33;6.80;99.90
5041;DHT22;2539;52.568;13.364;2022-11-14T01:00:59;6.80;99.90
5041;DHT22;2539;52.568;13.364;2022-11-14T01:03:25;6.80;99.90
5041;DHT22;2539;52.568;13.364;2022-11-14T01:05:51;6.80;99.90
5041;DHT22;2539;52.568;13.364;2022-11-14T01:08:18;6.70;99.90
5041;DHT22;2539;52.568;13.364;2022-11-14T01:10:48;6.70;99.90
5041;DHT22;2539;52.568;13.364;2022-11-14T01:13:16;6.60;99.90
5041;DHT22;2539;52.568;13.364;2022-11-14T01:15:47;6.60;99.90
5041;DHT22;2539;52.568;13.364;2022-11-14T01:18:17;6.60;99.90
5041;DHT22;2539;52.568;13.364;2022-11-14T01:20:44;6.60;99.90
5041;DHT22;2539;52.568;13.364;2022-11-14T01:23:12;6.60;99.90
5041;DHT22;2539;52.568;13.364;2022-11-14T01:25:40;6.50;99.90
5041;DHT22;2539;52.568;13.364;2022-11-14T01:28:08;6.40;99.90
5041;DHT22;2539;52.568;13.364;2022-11-14T01:30:35;6.40;99.90
5041;DHT22;2539;52.568;13.364;2022-11-14T01:33:02;6.40;99.90
5041;DHT22;2539;52.568;13.364;2022-11-14T01:35:27;6.30;99.90
5041;DHT22;2539;52.568;13.364;2022-11-14T01:37:53;6.30;99.90
5041;DHT22;2539;52.568;13.364;2022-11-14T01:40:19;6.30;99.90
5041;DHT22;2539;52.568;13.364;2022-11-14T01:46:03;6.20;99.90
5041;DHT22;2539;52.568;13.364;2022-11-14T01:48:51;6.20;99.90
5041;DHT22;2539;52.568;13.364;2022-11-14T01:51:30;6.20;99.90
5041;DHT22;2539;52.568;13.364;2022-11-14T01:54:04;6.20;99.90
5041;DHT22;2539;52.568;13.364;2022-11-14T01:56:35;6.10;99.90
5041;DHT22;2539;52.568;13.364;2022-11-14T01:59:10;6.10;99.90
5041;DHT22;2539;52.568;13.364;2022-11-14T02:01:49;6.00;99.90
5041;DHT22;2539;52.568;13.364;2022-11-14T02:04:24;6.00;99.90
5041;DHT22;2539;52.568;13.364;2022-11-14T02:06:56;6.00;99.90
5041;DHT22;2539;52.568;13.364;2022-11-14T02:09:24;6.00;99.90
5041;DHT22;2539;52.568;13.364;2022-11-14T02:11:52;6.00;99.90
5041;DHT22;2539;52.568;13.364;2022-11-14T02:14:19;6.00;99.90
5041;DHT22;2539;52.568;13.364;2022-11-14T02:16:46;6.10;99.90
5041;DHT22;2539;52.568;13.364;2022-11-14T02:19:14;6.10;99.90
5041;DHT22;2539;52.568;13.364;2022-11-14T02:21:40;6.20;99.90
5041;DHT22;2539;52.568;13.364;2022-11-14T02:24:09;6.20;99.90
5041;DHT22;2539;52.568;13.364;2022-11-14T02:26:36;6.40;99.90
5041;DHT22;2539;52.568;13.364;2022-11-14T02:29:04;6.40;99.90
5041;DHT22;2539;52.568;13.364;2022-11-14T02:31:30;6.50;99.90
5041;DHT22;2539;52.568;13.364;2022-11-14T02:33:56;6.60;99.90
5041;DHT22;2539;52.568;13.364;2022-11-14T02:36:23;6.70;99.90
5041;DHT22;2539;52.568;13.364;2022-11-14T02:38:49;6.70;99.90
5041;DHT22;2539;52.568;13.364;2022-11-14T02:41:15;6.70;99.90
5041;DHT22;2539;52.568;13.364;2022-11-14T02:43:41;6.80;99.90
5041;DHT22;2539;52.568;13.364;2022-11-14T02:46:08;6.80;99.90
5041;DHT22;2539;52.568;13.364;2022-11-14T02:48:34;6.80;99.90
5041;DHT22;2539;52.568;13.364;2022-11-14T02:51:00;6.80;99.90
5041;DHT22;2539;52.568;13.364;2022-11-14T02:53:26;6.80;99.90
5041;DHT22;2539;52.568;13.364;2022-11-14T02:55:53;6.80;99.90
5041;DHT22;2539;52.568;13.364;2022-11-14T02:58:19;6.90;99.90
5041;DHT22;2539;52.568;13.364;2022-11-14T03:00:45;6.90;99.90
5041;DHT22;2539;52.568;13.364;2022-11-14T03:03:11;6.90;99.90
5041;DHT22;2539;52.568;13.364;2022-11-14T03:05:36;6.90;99.90
5041;DHT22;2539;52.568;13.364;2022-11-14T03:08:02;6.80;99.90
5041;DHT22;2539;52.568;13.364;2022-11-14T03:10:28;6.70;99.90
5041;DHT22;2539;52.568;13.364;2022-11-14T03:12:54;6.60;99.90
5041;DHT22;2539;52.568;13.364;2022-11-14T03:15:21;6.60;99.90
5041;DHT22;2539;52.568;13.364;2022-11-14T03:17:48;6.50;99.90
5041;DHT22;2539;52.568;13.364;2022-11-14T03:20:15;6.50;99.90
5041;DHT22;2539;52.568;13.364;2022-11-14T03:22:41;6.40;99.90
5041;DHT22;2539;52.568;13.364;2022-11-14T03:25:08;6.40;99.90
5041;DHT22;2539;52.568;13.364;2022-11-14T03:27:34;6.40;99.90
5041;DHT22;2539;52.568;13.364;2022-11-14T03:30:00;6.40;99.90
5041;DHT22;2539;52.568;13.364;2022-11-14T03:32:27;6.30;99.90
5041;DHT22;2539;52.568;13.364;2022-11-14T03:34:53;6.30;99.90
5041;DHT22;2539;52.568;13.364;2022-11-14T03:37:19;6.30;99.90
5041;DHT22;2539;52.568;13.364;2022-11-14T03:39:45;6.30;99.90
5041;DHT22;2539;52.568;13.364;2022-11-14T03:42:12;6.20;99.90
5041;DHT22;2539;52.568;13.364;2022-11-14T03:44:38;6.20;99.90
5041;DHT22;2539;52.568;13.364;2022-11-14T03:47:04;6.20;99.90
5041;DHT22;2539;52.568;13.364;2022-11-14T03:49:31;6.10;99.90
5041;DHT22;2539;52.568;13.364;2022-11-14T03:51:57;6.10;99.90
5041;DHT22;2539;52.568;13.364;2022-11-14T03:54:24;6.00;99.90
5041;DHT22;2539;52.568;13.364;2022-11-14T03:56:50;6.10;99.90
5041;DHT22;2539;52.568;13.364;2022-11-14T03:59:16;6.10;99.90
5041;DHT22;2539;52.568;13.364;2022-11-14T04:01:42;6.10;99.90
5041;DHT22;2539;52.568;13.364;2022-11-14T04:04:11;6.10;99.90
5041;DHT22;2539;52.568;13.364;2022-11-14T04:06:37;6.20;99.90
5041;DHT22;2539;52.568;13.364;2022-11-14T04:09:04;6.20;99.90
5041;DHT22;2539;52.568;13.364;2022-11-14T04:11:31;6.30;99.90
5041;DHT22;2539;52.568;13.364;2022-11-14T04:13:57;6.40;99.90
5041;DHT22;2539;52.568;13.364;2022-11-14T04:16:23;6.40;99.90
5041;DHT22;2539;52.568;13.364;2022-11-14T04:18:50;6.50;99.90
5041;DHT22;2539;52.568;13.364;2022-11-14T04:21:16;6.50;99.90
5041;DHT22;2539;52.568;13.364;2022-11-14T04:23:42;6.50;99.90
5041;DHT22;2539;52.568;13.364;2022-11-14T04:26:08;6.50;99.90
5041;DHT22;2539;52.568;13.364;2022-11-14T04:28:35;6.50;99.90
5041;DHT22;2539;52.568;13.364;2022-11-14T04:31:01;6.40;99.90
5041;DHT22;2539;52.568;13.364;2022-11-14T04:33:27;6.40;99.90
5041;DHT22;2539;52.568;13.364;2022-11-14T04:35:53;6.30;99.90
5041;DHT22;2539;52.568;13.364;2022-11-14T04:38:20;6.30;99.90
5041;DHT22;2539;52.568;13.364;2022-11-14T04:40:50;6.20;99.90
5041;DHT22;2539;52.568;13.364;2022-11-14T04:43:17;6.30;99.90
5041;DHT22;2539;52.568;13.364;2022-11-14T04:45:44;6.20;99.90
5041;DHT22;2539;52.568;13.364;2022-11-14T04:48:10;6.10;99.90
5041;DHT22;2539;52.568;13.364;2022-11-14T04:50:36;6.00;99.90
5041;DHT22;2539;52.568;13.364;2022-11-14T04:53:03;5.90;99.90
5041;DHT22;2539;52.568;13.364;2022-11-14T04:55:29;5.90;99.90
5041;DHT22;2539;52.568;13.364;2022-11-14T04:57:57;5.80;99.90
5041;DHT22;2539;52.568;13.364;2022-11-14T05:00:24;5.70;99.90
5041;DHT22;2539;52.568;13.364;2022-11-14T05:02:50;5.80;99.90
5041;DHT22;2539;52.568;13.364;2022-11-14T05:05:16;5.80;99.90
5041;DHT22;2539;52.568;13.364;2022-11-14T05:07:42;5.80;99.90
5041;DHT22;2539;52.568;13.364;2022-11-14T05:10:09;5.80;99.90
5041;DHT22;2539;52.568;13.364;2022-11-14T05:12:35;5.80;99.90
5041;DHT22;2539;52.568;13.364;2022-11-14T05:15:01;5.80;99.90
5041;DHT22;2539;52.568;13.364;2022-11-14T05:17:27;5.80;99.90
5041;DHT22;2539;52.568;13.364;2022-11-14T05:19:54;5.90;99.90
5041;DHT22;2539;52.568;13.364;2022-11-14T05:22:20;5.90;99.90
5041;DHT22;2539;52.568;13.364;2022-11-14T05:24:46;5.90;99.90
5041;DHT22;2539;52.568;13.364;2022-11-14T05:27:12;5.80;99.90
5041;DHT22;2539;52.568;13.364;2022-11-14T05:29:39;5.80;99.90
5041;DHT22;2539;52.568;13.364;2022-11-14T05:32:05;5.80;99.90
5041;DHT22;2539;52.568;13.364;2022-11-14T05:34:31;5.80;99.90
5041;DHT22;2539;52.568;13.364;2022-11-14T05:36:58;5.80;99.90
5041;DHT22;2539;52.568;13.364;2022-11-14T05:39:24;5.80;99.90
5041;DHT22;2539;52.568;13.364;2022-11-14T05:41:50;5.80;99.90
5041;DHT22;2539;52.568;13.364;2022-11-14T05:44:17;5.80;99.90
5041;DHT22;2539;52.568;13.364;2022-11-14T05:46:43;5.90;99.90
5041;DHT22;2539;52.568;13.364;2022-11-14T05:49:09;5.90;99.90
5041;DHT22;2539;52.568;13.364;2022-11-14T05:51:35;6.00;99.90
5041;DHT22;2539;52.568;13.364;2022-11-14T05:54:02;6.10;99.90
5041;DHT22;2539;52.568;13.364;2022-11-14T05:56:28;6.20;99.90
5041;DHT22;2539;52.568;13.364;2022-11-14T05:58:54;6.20;99.90
5041;DHT22;2539;52.568;13.364;2022-11-14T06:01:21;6.30;99.90
5041;DHT22;2539;52.568;13.364;2022-11-14T06:03:48;6.30;99.90
5041;DHT22;2539;52.568;13.364;2022-11-14T06:06:17;6.40;99.90
5041;DHT22;2539;52.568;13.364;2022-11-14T06:08:43;6.40;99.90
5041;DHT22;2539;52.568;13.364;2022-11-14T06:11:12;6.40;99.90
5041;DHT22;2539;52.568;13.364;2022-11-14T06:13:39;6.40;99.90
5041;DHT22;2539;52.568;13.364;2022-11-14T06:16:09;6.40;99.90
5041;DHT22;2539;52.568;13.364;2022-11-14T06:18:36;6.40;99.90
5041;DHT22;2539;52.568;13.364;2022-11-14T06:21:06;6.40;99.90
5041;DHT22;2539;52.568;13.364;2022-11-14T06:23:32;6.40;99.90
5041;DHT22;2539;52.568;13.364;2022-11-14T06:26:00;6.40;99.90
5041;DHT22;2539;52.568;13.364;2022-11-14T06:28:27;6.30;99.90
5041;DHT22;2539;52.568;13.364;2022-11-14T06:30:58;6.30;99.90
5041;DHT22;2539;52.568;13.364;2022-11-14T06:33:33;6.40;99.90
5041;DHT22;2539;52.568;13.364;2022-11-14T06:36:01;6.40;99.90
5041;DHT22;2539;52.568;13.364;2022-11-14T06:38:30;6.30;99.90
5041;DHT22;2539;52.568;13.364;2022-11-14T06:41:12;6.30;99.90
5041;DHT22;2539;52.568;13.364;2022-11-14T06:43:40;6.20;99.90
5041;DHT22;2539;52.568;13.364;2022-11-14T06:46:08;6.20;99.90
5041;DHT22;2539;52.568;13.364;2022-11-14T06:48:35;6.20;99.90
5041;DHT22;2539;52.568;13.364;2022-11-14T06:51:03;6.20;99.90
5041;DHT22;2539;52.568;13.364;2022-11-14T06:53:31;6.20;99.90
5041;DHT22;2539;52.568;13.364;2022-11-14T06:55:59;6.20;99.90
5041;DHT22;2539;52.568;13.364;2022-11-14T06:58:27;6.30;99.90
5041;DHT22;2539;52.568;13.364;2022-11-14T07:00:53;6.30;99.90
5041;DHT22;2539;52.568;13.364;2022-11-14T07:03:20;6.30;99.90
5041;DHT22;2539;52.568;13.364;2022-11-14T07:05:47;6.40;99.90
5041;DHT22;2539;52.568;13.364;2022-11-14T07:08:14;6.40;99.90
5041;DHT22;2539;52.568;13.364;2022-11-14T07:10:40;6.40;99.90
5041;DHT22;2539;52.568;13.364;2022-11-14T07:13:07;6.40;99.90
5041;DHT22;2539;52.568;13.364;2022-11-14T07:15:35;6.40;99.90
5041;DHT22;2539;52.568;13.364;2022-11-14T07:18:02;6.50;99.90
5041;DHT22;2539;52.568;13.364;2022-11-14T07:20:28;6.50;99.90
5041;DHT22;2539;52.568;13.364;2022-11-14T07:22:54;6.60;99.90
5041;DHT22;2539;52.568;13.364;2022-11-14T07:25:20;6.70;99.90
5041;DHT22;2539;52.568;13.364;2022-11-14T07:27:47;6.60;99.90
5041;DHT22;2539;52.568;13.364;2022-11-14T07:30:14;6.70;99.90
5041;DHT22;2539;52.568;13.364;2022-11-14T07:32:40;6.60;99.90
5041;DHT22;2539;52.568;13.364;2022-11-14T07:35:07;6.70;99.90
5041;DHT22;2539;52.568;13.364;2022-11-14T07:37:33;6.70;99.90
5041;DHT22;2539;52.568;13.364;2022-11-14T07:39:59;6.70;99.90
5041;DHT22;2539;52.568;13.364;2022-11-14T07:42:28;6.70;99.90
5041;DHT22;2539;52.568;13.364;2022-11-14T07:44:54;6.70;99.90
5041;DHT22;2539;52.568;13.364;2022-11-14T07:47:19;6.70;99.90
5041;DHT22;2539;52.568;13.364;2022-11-14T07:49:45;6.70;99.90
5041;DHT22;2539;52.568;13.364;2022-11-14T07:52:11;6.70;99.90
5041;DHT22;2539;52.568;13.364;2022-11-14T07:54:37;6.70;99.90
5041;DHT22;2539;52.568;13.364;2022-11-14T07:57:04;6.70;99.90
5041;DHT22;2539;52.568;13.364;2022-11-14T07:59:30;6.80;99.90
5041;DHT22;2539;52.568;13.364;2022-11-14T08:01:56;6.80;99.90
5041;DHT22;2539;52.568;13.364;2022-11-14T08:04:22;6.80;99.90
5041;DHT22;2539;52.568;13.364;2022-11-14T08:06:49;6.80;99.90
5041;DHT22;2539;52.568;13.364;2022-11-14T08:09:15;6.80;99.90
5041;DHT22;2539;52.568;13.364;2022-11-14T08:11:41;6.80;99.90
5041;DHT22;2539;52.568;13.364;2022-11-14T08:14:15;6.90;99.90
5041;DHT22;2539;52.568;13.364;2022-11-14T08:16:41;6.90;99.90
5041;DHT22;2539;52.568;13.364;2022-11-14T08:19:07;7.00;99.90
5041;DHT22;2539;52.568;13.364;2022-11-14T08:21:34;7.10;99.90
5041;DHT22;2539;52.568;13.364;2022-11-14T08:24:01;7.10;99.90
5041;DHT22;2539;52.568;13.364;2022-11-14T08:26:27;7.10;99.90
5041;DHT22;2539;52.568;13.364;2022-11-14T08:28:53;7.20;99.90
5041;DHT22;2539;52.568;13.364;2022-11-14T08:31:20;7.20;99.90
5041;DHT22;2539;52.568;13.364;2022-11-14T08:33:46;7.10;99.90
5041;DHT22;2539;52.568;13.364;2022-11-14T08:36:15;7.10;99.90
5041;DHT22;2539;52.568;13.364;2022-11-14T08:38:41;7.10;99.90
5041;DHT22;2539;52.568;13.364;2022-11-14T08:41:07;7.20;99.90
5041;DHT22;2539;52.568;13.364;2022-11-14T08:43:34;7.40;99.90
5041;DHT22;2539;52.568;13.364;2022-11-14T08:46:02;7.40;99.90
5041;DHT22;2539;52.568;13.364;2022-11-14T08:48:29;7.40;99.90
5041;DHT22;2539;52.568;13.364;2022-11-14T08:50:56;7.50;99.90
5041;DHT22;2539;52.568;13.364;2022-11-14T08:53:22;7.50;99.90
5041;DHT22;2539;52.568;13.364;2022-11-14T08:55:48;7.50;99.90
5041;DHT22;2539;52.568;13.364;2022-11-14T08:58:14;7.50;99.90
5041;DHT22;2539;52.568;13.364;2022-11-14T09:00:40;7.70;99.90
5041;DHT22;2539;52.568;13.364;2022-11-14T09:03:10;7.80;99.90
5041;DHT22;2539;52.568;13.364;2022-11-14T09:05:39;7.80;99.90
5041;DHT22;2539;52.568;13.364;2022-11-14T09:08:05;7.90;99.90
5041;DHT22;2539;52.568;13.364;2022-11-14T09:10:32;8.00;99.90
5041;DHT22;2539;52.568;13.364;2022-11-14T09:12:59;8.00;99.90
5041;DHT22;2539;52.568;13.364;2022-11-14T09:15:28;8.10;99.90
5041;DHT22;2539;52.568;13.364;2022-11-14T09:17:55;8.20;99.90
5041;DHT22;2539;52.568;13.364;2022-11-14T09:20:22;8.30;99.90
5041;DHT22;2539;52.568;13.364;2022-11-14T09:22:49;8.50;99.90
5041;DHT22;2539;52.568;13.364;2022-11-14T09:25:19;8.60;99.90
5041;DHT22;2539;52.568;13.364;2022-11-14T09:27:45;8.60;99.90
5041;DHT22;2539;52.568;13.364;2022-11-14T09:30:12;8.40;99.90
5041;DHT22;2539;52.568;13.364;2022-11-14T09:32:38;8.30;99.90
5041;DHT22;2539;52.568;13.364;2022-11-14T09:35:05;8.10;99.90
5041;DHT22;2539;52.568;13.364;2022-11-14T09:37:32;8.00;99.90
5041;DHT22;2539;52.568;13.364;2022-11-14T09:39:58;8.10;99.90
5041;DHT22;2539;52.568;13.364;2022-11-14T09:42:41;8.10;99.90
5041;DHT22;2539;52.568;13.364;2022-11-14T09:45:13;8.10;99.90
5041;DHT22;2539;52.568;13.364;2022-11-14T09:47:43;8.10;99.90
5041;DHT22;2539;52.568;13.364;2022-11-14T09:50:16;8.10;99.90
5041;DHT22;2539;52.568;13.364;2022-11-14T09:52:49;8.10;99.90
5041;DHT22;2539;52.568;13.364;2022-11-14T09:55:19;8.10;99.90
5041;DHT22;2539;52.568;13.364;2022-11-14T09:57:46;8.10;99.90
5041;DHT22;2539;52.568;13.364;2022-11-14T10:00:19;8.10;99.90
5041;DHT22;2539;52.568;13.364;2022-11-14T10:03:08;8.10;99.90
5041;DHT22;2539;52.568;13.364;2022-11-14T10:11:21;8.30;99.90
5041;DHT22;2539;52.568;13.364;2022-11-14T10:13:55;8.30;99.90
5041;DHT22;2539;52.568;13.364;2022-11-14T10:17:02;8.40;99.90
5041;DHT22;2539;52.568;13.364;2022-11-14T10:22:55;8.50;99.90
5041;DHT22;2539;52.568;13.364;2022-11-14T10:25:23;8.50;99.90
5041;DHT22;2539;52.568;13.364;2022-11-14T10:31:22;8.60;99.90
5041;DHT22;2539;52.568;13.364;2022-11-14T10:34:05;8.70;99.90
5041;DHT22;2539;52.568;13.364;2022-11-14T10:39:52;8.70;99.90
5041;DHT22;2539;52.568;13.364;2022-11-14T10:42:34;8.80;99.90
5041;DHT22;2539;52.568;13.364;2022-11-14T10:45:26;8.80;99.90
5041;DHT22;2539;52.568;13.364;2022-11-14T10:48:07;8.90;99.90
5041;DHT22;2539;52.568;13.364;2022-11-14T10:50:50;9.00;99.90
5041;DHT22;2539;52.568;13.364;2022-11-14T10:53:25;9.00;99.90
5041;DHT22;2539;52.568;13.364;2022-11-14T10:55:53;9.10;99.90
5041;DHT22;2539;52.568;13.364;2022-11-14T10:58:20;9.10;99.90
5041;DHT22;2539;52.568;13.364;2022-11-14T11:00:47;9.20;99.90
5041;DHT22;2539;52.568;13.364;2022-11-14T11:03:13;9.20;99.90
5041;DHT22;2539;52.568;13.364;2022-11-14T11:05:50;9.20;99.90
5041;DHT22;2539;52.568;13.364;2022-11-14T11:08:20;9.20;99.90
5041;DHT22;2539;52.568;13.364;2022-11-14T11:11:13;9.30;99.90
5041;DHT22;2539;52.568;13.364;2022-11-14T11:13:57;9.20;99.90
5041;DHT22;2539;52.568;13.364;2022-11-14T11:16:26;9.30;99.90
5041;DHT22;2539;52.568;13.364;2022-11-14T11:18:53;9.30;99.90
5041;DHT22;2539;52.568;13.364;2022-11-14T11:21:46;9.30;99.90
5041;DHT22;2539;52.568;13.364;2022-11-14T11:24:32;9.40;99.90
5041;DHT22;2539;52.568;13.364;2022-11-14T11:27:13;9.40;99.90
5041;DHT22;2539;52.568;13.364;2022-11-14T11:29:40;9.40;99.90
5041;DHT22;2539;52.568;13.364;2022-11-14T11:32:07;9.40;99.90
5041;DHT22;2539;52.568;13.364;2022-11-14T11:34:33;9.50;99.90
5041;DHT22;2539;52.568;13.364;2022-11-14T11:37:14;9.50;99.90
5041;DHT22;2539;52.568;13.364;2022-11-14T11:39:48;9.50;99.90
5041;DHT22;2539;52.568;13.364;2022-11-14T11:42:22;9.60;99.90
5041;DHT22;2539;52.568;13.364;2022-11-14T11:44:52;9.60;99.90
5041;DHT22;2539;52.568;13.364;2022-11-14T11:47:21;9.60;99.90
5041;DHT22;2539;52.568;13.364;2022-11-14T11:49:49;9.60;99.90
5041;DHT22;2539;52.568;13.364;2022-11-14T11:55:29;9.70;99.90
5041;DHT22;2539;52.568;13.364;2022-11-14T12:00:34;9.70;99.90
5041;DHT22;2539;52.568;13.364;2022-11-14T12:03:00;9.70;99.90
5041;DHT22;2539;52.568;13.364;2022-11-14T12:06:29;9.70;99.90
5041;DHT22;2539;52.568;13.364;2022-11-14T12:11:19;9.80;99.90
5041;DHT22;2539;52.568;13.364;2022-11-14T12:14:28;9.80;99.90
5041;DHT22;2539;52.568;13.364;2022-11-14T12:20:03;9.80;99.90
5041;DHT22;2539;52.568;13.364;2022-11-14T12:22:56;9.80;99.90
5041;DHT22;2539;52.568;13.364;2022-11-14T12:28:32;9.90;99.90
5041;DHT22;2539;52.568;13.364;2022-11-14T12:31:02;9.90;99.90
5041;DHT22;2539;52.568;13.364;2022-11-14T12:33:38;9.90;99.90
5041;DHT22;2539;52.568;13.364;2022-11-14T12:36:10;9.90;99.90
5041;DHT22;2539;52.568;13.364;2022-11-14T12:38:43;9.90;99.90
5041;DHT22;2539;52.568;13.364;2022-11-14T12:41:10;9.90;99.90
5041;DHT22;2539;52.568;13.364;2022-11-14T12:43:38;10.00;99.90
5041;DHT22;2539;52.568;13.364;2022-11-14T12:46:06;9.90;99.90
5041;DHT22;2539;52.568;13.364;2022-11-14T12:48:40;9.90;99.90
5041;DHT22;2539;52.568;13.364;2022-11-14T12:53:52;9.90;99.90
5041;DHT22;2539;52.568;13.364;2022-11-14T13:09:14;10.10;99.90
5041;DHT22;2539;52.568;13.364;2022-11-14T13:11:44;10.20;99.90
5041;DHT22;2539;52.568;13.364;2022-11-14T13:14:30;10.10;99.90
5041;DHT22;2539;52.568;13.364;2022-11-14T13:20:13;10.20;99.90
5041;DHT22;2539;52.568;13.364;2022-11-14T13:28:47;10.20;99.90
5041;DHT22;2539;52.568;13.364;2022-11-14T13:31:19;10.20;99.90
5041;DHT22;2539;52.568;13.364;2022-11-14T13:33:57;10.20;99.90
5041;DHT22;2539;52.568;13.364;2022-11-14T13:36:40;10.10;99.90
5041;DHT22;2539;52.568;13.364;2022-11-14T13:44:47;10.20;99.90
5041;DHT22;2539;52.568;13.364;2022-11-14T13:47:36;10.20;99.90
5041;DHT22;2539;52.568;13.364;2022-11-14T13:50:09;10.10;99.90
5041;DHT22;2539;52.568;13.364;2022-11-14T13:52:41;10.10;99.90
5041;DHT22;2539;52.568;13.364;2022-11-14T13:55:18;10.00;99.90
5041;DHT22;2539;52.568;13.364;2022-11-14T14:00:21;10.10;99.90
5041;DHT22;2539;52.568;13.364;2022-11-14T14:03:06;10.00;99.90
5041;DHT22;2539;52.568;13.364;2022-11-14T14:06:00;10.00;99.90
5041;DHT22;2539;52.568;13.364;2022-11-14T14:08:49;10.00;99.90
5041;DHT22;2539;52.568;13.364;2022-11-14T14:14:27;10.10;99.90
5041;DHT22;2539;52.568;13.364;2022-11-14T14:17:06;10.00;99.90
5041;DHT22;2539;52.568;13.364;2022-11-14T14:30:19;9.80;99.90
5041;DHT22;2539;52.568;13.364;2022-11-14T14:33:10;9.90;99.90
5041;DHT22;2539;52.568;13.364;2022-11-14T14:35:38;9.90;99.90
5041;DHT22;2539;52.568;13.364;2022-11-14T14:38:11;9.90;99.90
5041;DHT22;2539;52.568;13.364;2022-11-14T14:40:40;9.80;99.90
5041;DHT22;2539;52.568;13.364;2022-11-14T14:43:13;9.80;99.90
5041;DHT22;2539;52.568;13.364;2022-11-14T14:45:50;9.70;99.90
5041;DHT22;2539;52.568;13.364;2022-11-14T14:48:22;9.60;99.90
5041;DHT22;2539;52.568;13.364;2022-11-14T14:50:54;9.50;99.90
5041;DHT22;2539;52.568;13.364;2022-11-14T14:53:32;9.50;99.90
5041;DHT22;2539;52.568;13.364;2022-11-14T14:56:03;9.40;99.90
5041;DHT22;2539;52.568;13.364;2022-11-14T14:58:32;9.40;99.90
5041;DHT22;2539;52.568;13.364;2022-11-14T15:01:04;9.30;99.90
5041;DHT22;2539;52.568;13.364;2022-11-14T15:03:51;9.20;99.90
5041;DHT22;2539;52.568;13.364;2022-11-14T15:06:33;9.20;99.90
5041;DHT22;2539;52.568;13.364;2022-11-14T15:09:07;9.10;99.90
5041;DHT22;2539;52.568;13.364;2022-11-14T15:11:34;9.10;99.90
5041;DHT22;2539;52.568;13.364;2022-11-14T15:14:01;9.00;99.90
5041;DHT22;2539;52.568;13.364;2022-11-14T15:16:28;8.90;99.90
5041;DHT22;2539;52.568;13.364;2022-11-14T15:18:56;8.90;99.90
5041;DHT22;2539;52.568;13.364;2022-11-14T15:21:27;8.80;99.90
5041;DHT22;2539;52.568;13.364;2022-11-14T15:24:23;8.80;99.90
5041;DHT22;2539;52.568;13.364;2022-11-14T15:26:49;8.70;99.90
5041;DHT22;2539;52.568;13.364;2022-11-14T15:29:26;8.70;99.90
5041;DHT22;2539;52.568;13.364;2022-11-14T15:31:55;8.60;99.90
5041;DHT22;2539;52.568;13.364;2022-11-14T15:34:28;8.60;99.90
5041;DHT22;2539;52.568;13.364;2022-11-14T15:39:39;8.50;99.90
5041;DHT22;2539;52.568;13.364;2022-11-14T15:44:51;8.40;99.90
5041;DHT22;2539;52.568;13.364;2022-11-14T15:47:21;8.40;99.90
5041;DHT22;2539;52.568;13.364;2022-11-14T15:49:57;8.30;99.90
5041;DHT22;2539;52.568;13.364;2022-11-14T15:52:33;8.30;99.90
5041;DHT22;2539;52.568;13.364;2022-11-14T15:55:00;8.30;99.90
5041;DHT22;2539;52.568;13.364;2022-11-14T15:57:26;8.20;99.90
5041;DHT22;2539;52.568;13.364;2022-11-14T15:59:53;8.20;99.90
5041;DHT22;2539;52.568;13.364;2022-11-14T16:02:24;8.10;99.90
5041;DHT22;2539;52.568;13.364;2022-11-14T16:04:54;8.10;99.90
5041;DHT22;2539;52.568;13.364;2022-11-14T16:07:21;8.00;99.90
5041;DHT22;2539;52.568;13.364;2022-11-14T16:09:47;8.00;99.90
5041;DHT22;2539;52.568;13.364;2022-11-14T16:12:13;8.00;99.90
5041;DHT22;2539;52.568;13.364;2022-11-14T16:14:39;7.90;99.90
5041;DHT22;2539;52.568;13.364;2022-11-14T16:17:05;7.90;99.90
5041;DHT22;2539;52.568;13.364;2022-11-14T16:19:33;7.80;99.90
5041;DHT22;2539;52.568;13.364;2022-11-14T16:22:00;7.70;99.90
5041;DHT22;2539;52.568;13.364;2022-11-14T16:24:29;7.70;99.90
5041;DHT22;2539;52.568;13.364;2022-11-14T16:26:56;7.70;99.90
5041;DHT22;2539;52.568;13.364;2022-11-14T16:29:23;7.60;99.90
5041;DHT22;2539;52.568;13.364;2022-11-14T16:31:50;7.60;99.90
5041;DHT22;2539;52.568;13.364;2022-11-14T16:34:24;7.50;99.90
5041;DHT22;2539;52.568;13.364;2022-11-14T16:36:59;7.60;99.90
5041;DHT22;2539;52.568;13.364;2022-11-14T16:39:25;7.60;99.90
5041;DHT22;2539;52.568;13.364;2022-11-14T16:41:52;7.60;99.90
5041;DHT22;2539;52.568;13.364;2022-11-14T16:44:18;7.50;99.90
5041;DHT22;2539;52.568;13.364;2022-11-14T16:46:45;7.50;99.90
5041;DHT22;2539;52.568;13.364;2022-11-14T16:49:16;7.50;99.90
5041;DHT22;2539;52.568;13.364;2022-11-14T16:51:43;7.50;99.90
5041;DHT22;2539;52.568;13.364;2022-11-14T16:54:10;7.50;99.90
5041;DHT22;2539;52.568;13.364;2022-11-14T16:56:37;7.50;99.90
5041;DHT22;2539;52.568;13.364;2022-11-14T16:59:04;7.50;99.90
5041;DHT22;2539;52.568;13.364;2022-11-14T17:01:30;7.50;99.90
5041;DHT22;2539;52.568;13.364;2022-11-14T17:03:57;7.50;99.90
5041;DHT22;2539;52.568;13.364;2022-11-14T17:06:27;7.50;99.90
5041;DHT22;2539;52.568;13.364;2022-11-14T17:08:58;7.50;99.90
5041;DHT22;2539;52.568;13.364;2022-11-14T17:11:25;7.40;99.90
5041;DHT22;2539;52.568;13.364;2022-11-14T17:13:53;7.50;99.90
5041;DHT22;2539;52.568;13.364;2022-11-14T17:16:19;7.50;99.90
5041;DHT22;2539;52.568;13.364;2022-11-14T17:18:50;7.50;99.90
5041;DHT22;2539;52.568;13.364;2022-11-14T17:21:16;7.50;99.90
5041;DHT22;2539;52.568;13.364;2022-11-14T17:23:41;7.50;99.90
5041;DHT22;2539;52.568;13.364;2022-11-14T17:26:09;7.40;99.90
5041;DHT22;2539;52.568;13.364;2022-11-14T17:28:36;7.50;99.90
5041;DHT22;2539;52.568;13.364;2022-11-14T17:31:07;7.50;99.90
5041;DHT22;2539;52.568;13.364;2022-11-14T17:33:34;7.50;99.90
5041;DHT22;2539;52.568;13.364;2022-11-14T17:36:03;7.40;99.90
5041;DHT22;2539;52.568;13.364;2022-11-14T17:38:36;7.40;99.90
5041;DHT22;2539;52.568;13.364;2022-11-14T17:41:03;7.30;99.90